Terminal Aerodrome Forecast
Issued by NWS

Home | Current Version | Previous Version | Text Only | Print | Product List | Glossary On
Versions: 1 2 3 4 5 6 7 8 9 10 11 12 13 14
000
FTUS43 KMPX 291808 CCA
TAFAXN
TAF COR
KAXN 291808Z 2918/3018 32023G34KT P6SM SCT030
     FM300000 29013KT P6SM SKC
     FM300300 25005KT P6SM SKC
     FM300600 22004KT P6SM SKC
     FM301200 21008KT P6SM SCT250=

USA.gov is the U.S. government's official web portal to all federal, state and local government web resources and services.